sensor_id;sensor_type;location;lat;lon;timestamp;pressure;altitude;pressure_sealevel;temperature;humidity
12793;BME280;6460;42.684;23.260;2023-04-25T00:01:53;93820.97;;;10.79;100.00
12793;BME280;6460;42.684;23.260;2023-04-25T00:04:20;93809.47;;;10.78;100.00
12793;BME280;6460;42.684;23.260;2023-04-25T00:06:49;93801.00;;;10.76;100.00
12793;BME280;6460;42.684;23.260;2023-04-25T00:09:17;93782.91;;;10.66;100.00
12793;BME280;6460;42.684;23.260;2023-04-25T00:11:44;93768.81;;;10.87;100.00
12793;BME280;6460;42.684;23.260;2023-04-25T00:14:12;93769.66;;;11.05;100.00
12793;BME280;6460;42.684;23.260;2023-04-25T00:16:39;93778.09;;;11.00;100.00
12793;BME280;6460;42.684;23.260;2023-04-25T00:19:06;93775.47;;;11.07;100.00
12793;BME280;6460;42.684;23.260;2023-04-25T00:21:35;93779.72;;;11.15;100.00
12793;BME280;6460;42.684;23.260;2023-04-25T00:24:05;93781.38;;;11.44;100.00
12793;BME280;6460;42.684;23.260;2023-04-25T00:26:34;93781.81;;;11.67;100.00
12793;BME280;6460;42.684;23.260;2023-04-25T00:29:01;93781.09;;;11.88;100.00
12793;BME280;6460;42.684;23.260;2023-04-25T00:31:28;93778.03;;;11.97;100.00
12793;BME280;6460;42.684;23.260;2023-04-25T00:33:55;93786.50;;;12.09;100.00
12793;BME280;6460;42.684;23.260;2023-04-25T00:36:22;93791.13;;;11.91;100.00
12793;BME280;6460;42.684;23.260;2023-04-25T00:38:50;93790.66;;;11.64;100.00
12793;BME280;6460;42.684;23.260;2023-04-25T00:41:18;93779.47;;;11.48;100.00
12793;BME280;6460;42.684;23.260;2023-04-25T00:43:47;93786.69;;;11.34;100.00
12793;BME280;6460;42.684;23.260;2023-04-25T00:46:15;93785.59;;;11.52;100.00
12793;BME280;6460;42.684;23.260;2023-04-25T00:48:42;93783.69;;;11.56;100.00
12793;BME280;6460;42.684;23.260;2023-04-25T00:51:17;93772.91;;;11.49;100.00
12793;BME280;6460;42.684;23.260;2023-04-25T00:53:46;93781.00;;;11.56;100.00
12793;BME280;6460;42.684;23.260;2023-04-25T00:56:14;93766.03;;;11.66;100.00
12793;BME280;6460;42.684;23.260;2023-04-25T00:58:42;93763.78;;;11.79;100.00
12793;BME280;6460;42.684;23.260;2023-04-25T01:01:10;93764.59;;;11.90;100.00
12793;BME280;6460;42.684;23.260;2023-04-25T01:03:39;93747.28;;;12.05;100.00
12793;BME280;6460;42.684;23.260;2023-04-25T01:06:08;93749.16;;;11.73;100.00
12793;BME280;6460;42.684;23.260;2023-04-25T01:08:36;93749.94;;;11.91;100.00
12793;BME280;6460;42.684;23.260;2023-04-25T01:11:04;93744.59;;;11.84;100.00
12793;BME280;6460;42.684;23.260;2023-04-25T01:13:31;93742.28;;;11.86;100.00
12793;BME280;6460;42.684;23.260;2023-04-25T01:16:01;93737.63;;;11.76;100.00
12793;BME280;6460;42.684;23.260;2023-04-25T01:18:29;93738.78;;;11.75;100.00
12793;BME280;6460;42.684;23.260;2023-04-25T01:21:02;93740.72;;;11.74;100.00
12793;BME280;6460;42.684;23.260;2023-04-25T01:23:33;93742.66;;;11.77;100.00
12793;BME280;6460;42.684;23.260;2023-04-25T01:26:01;93744.56;;;11.80;100.00
12793;BME280;6460;42.684;23.260;2023-04-25T01:28:28;93741.50;;;11.85;100.00
12793;BME280;6460;42.684;23.260;2023-04-25T01:30:56;93742.25;;;11.79;100.00
12793;BME280;6460;42.684;23.260;2023-04-25T01:33:23;93751.44;;;11.63;100.00
12793;BME280;6460;42.684;23.260;2023-04-25T01:35:51;93745.63;;;11.47;100.00
12793;BME280;6460;42.684;23.260;2023-04-25T01:38:20;93746.03;;;11.56;100.00
12793;BME280;6460;42.684;23.260;2023-04-25T01:40:49;93753.66;;;11.33;100.00
12793;BME280;6460;42.684;23.260;2023-04-25T01:43:17;93740.53;;;11.21;100.00
12793;BME280;6460;42.684;23.260;2023-04-25T01:45:45;93738.66;;;11.29;100.00
12793;BME280;6460;42.684;23.260;2023-04-25T01:48:13;93737.47;;;11.19;100.00
12793;BME280;6460;42.684;23.260;2023-04-25T01:50:40;93753.56;;;11.12;100.00
12793;BME280;6460;42.684;23.260;2023-04-25T01:53:09;93751.03;;;10.65;100.00
12793;BME280;6460;42.684;23.260;2023-04-25T01:55:37;93745.78;;;10.86;100.00
12793;BME280;6460;42.684;23.260;2023-04-25T01:58:05;93757.16;;;10.61;100.00
12793;BME280;6460;42.684;23.260;2023-04-25T02:00:35;93760.03;;;10.97;100.00
12793;BME280;6460;42.684;23.260;2023-04-25T02:03:03;93752.84;;;11.22;100.00
12793;BME280;6460;42.684;23.260;2023-04-25T02:05:34;93745.91;;;11.21;100.00
12793;BME280;6460;42.684;23.260;2023-04-25T02:08:02;93742.91;;;11.44;100.00
12793;BME280;6460;42.684;23.260;2023-04-25T02:10:30;93746.78;;;11.53;100.00
12793;BME280;6460;42.684;23.260;2023-04-25T02:12:59;93734.47;;;11.42;100.00
12793;BME280;6460;42.684;23.260;2023-04-25T02:15:26;93741.69;;;11.20;100.00
12793;BME280;6460;42.684;23.260;2023-04-25T02:17:53;93736.81;;;11.54;100.00
12793;BME280;6460;42.684;23.260;2023-04-25T02:20:21;93733.34;;;11.60;100.00
12793;BME280;6460;42.684;23.260;2023-04-25T02:22:48;93729.13;;;11.66;100.00
12793;BME280;6460;42.684;23.260;2023-04-25T02:25:16;93714.13;;;11.58;100.00
12793;BME280;6460;42.684;23.260;2023-04-25T02:27:43;93712.63;;;11.72;100.00
12793;BME280;6460;42.684;23.260;2023-04-25T02:30:13;93714.53;;;11.67;100.00
12793;BME280;6460;42.684;23.260;2023-04-25T02:32:40;93719.16;;;11.67;100.00
12793;BME280;6460;42.684;23.260;2023-04-25T02:35:08;93709.13;;;11.60;100.00
12793;BME280;6460;42.684;23.260;2023-04-25T02:37:37;93699.91;;;11.58;100.00
12793;BME280;6460;42.684;23.260;2023-04-25T02:40:06;93715.34;;;10.09;100.00
12793;BME280;6460;42.684;23.260;2023-04-25T02:42:34;93689.28;;;10.72;100.00
12793;BME280;6460;42.684;23.260;2023-04-25T02:45:01;93704.03;;;10.30;100.00
12793;BME280;6460;42.684;23.260;2023-04-25T02:47:29;93686.88;;;10.52;100.00
12793;BME280;6460;42.684;23.260;2023-04-25T02:49:56;93697.06;;;10.26;100.00
12793;BME280;6460;42.684;23.260;2023-04-25T02:52:23;93699.34;;;10.20;100.00
12793;BME280;6460;42.684;23.260;2023-04-25T02:54:51;93696.50;;;10.60;100.00
12793;BME280;6460;42.684;23.260;2023-04-25T02:57:18;93686.44;;;10.43;100.00
12793;BME280;6460;42.684;23.260;2023-04-25T02:59:45;93694.19;;;10.55;100.00
12793;BME280;6460;42.684;23.260;2023-04-25T03:02:12;93685.84;;;10.75;100.00
12793;BME280;6460;42.684;23.260;2023-04-25T03:04:41;93686.69;;;10.96;100.00
12793;BME280;6460;42.684;23.260;2023-04-25T03:07:08;93682.88;;;11.04;100.00
12793;BME280;6460;42.684;23.260;2023-04-25T03:09:35;93687.81;;;10.92;100.00
12793;BME280;6460;42.684;23.260;2023-04-25T03:12:03;93682.50;;;11.06;100.00
12793;BME280;6460;42.684;23.260;2023-04-25T03:14:30;93681.00;;;11.19;100.00
12793;BME280;6460;42.684;23.260;2023-04-25T03:16:57;93669.50;;;11.29;100.00
12793;BME280;6460;42.684;23.260;2023-04-25T03:19:25;93675.16;;;10.96;100.00
12793;BME280;6460;42.684;23.260;2023-04-25T03:21:53;93677.16;;;11.27;100.00
12793;BME280;6460;42.684;23.260;2023-04-25T03:24:21;93674.34;;;10.88;100.00
12793;BME280;6460;42.684;23.260;2023-04-25T03:26:48;93672.03;;;10.80;100.00
12793;BME280;6460;42.684;23.260;2023-04-25T03:29:15;93687.47;;;11.07;100.00
12793;BME280;6460;42.684;23.260;2023-04-25T03:31:42;93665.16;;;10.93;100.00
12793;BME280;6460;42.684;23.260;2023-04-25T03:34:09;93673.97;;;10.83;100.00
12793;BME280;6460;42.684;23.260;2023-04-25T03:36:36;93672.47;;;10.96;100.00
12793;BME280;6460;42.684;23.260;2023-04-25T03:39:05;93679.00;;;10.95;100.00
12793;BME280;6460;42.684;23.260;2023-04-25T03:41:32;93680.59;;;11.17;100.00
12793;BME280;6460;42.684;23.260;2023-04-25T03:43:59;93676.78;;;11.22;100.00
12793;BME280;6460;42.684;23.260;2023-04-25T03:46:27;93667.19;;;11.31;100.00
12793;BME280;6460;42.684;23.260;2023-04-25T03:48:54;93667.56;;;11.37;100.00
12793;BME280;6460;42.684;23.260;2023-04-25T03:51:21;93673.75;;;11.41;100.00
12793;BME280;6460;42.684;23.260;2023-04-25T03:53:48;93667.59;;;11.47;100.00
12793;BME280;6460;42.684;23.260;2023-04-25T03:56:16;93671.06;;;11.44;100.00
12793;BME280;6460;42.684;23.260;2023-04-25T03:58:43;93685.28;;;11.45;100.00
12793;BME280;6460;42.684;23.260;2023-04-25T04:01:10;93682.97;;;11.43;100.00
12793;BME280;6460;42.684;23.260;2023-04-25T04:03:37;93681.06;;;11.47;100.00
12793;BME280;6460;42.684;23.260;2023-04-25T04:06:06;93682.59;;;11.52;100.00
12793;BME280;6460;42.684;23.260;2023-04-25T04:08:34;93689.91;;;11.58;100.00
12793;BME280;6460;42.684;23.260;2023-04-25T04:11:02;93681.44;;;11.53;100.00
12793;BME280;6460;42.684;23.260;2023-04-25T04:13:30;93689.50;;;11.49;100.00
12793;BME280;6460;42.684;23.260;2023-04-25T04:15:57;93695.63;;;11.39;100.00
12793;BME280;6460;42.684;23.260;2023-04-25T04:18:25;93695.69;;;11.57;100.00
12793;BME280;6460;42.684;23.260;2023-04-25T04:20:52;93681.06;;;11.61;100.00
12793;BME280;6460;42.684;23.260;2023-04-25T04:23:19;93689.50;;;11.49;100.00
12793;BME280;6460;42.684;23.260;2023-04-25T04:25:48;93687.97;;;11.55;100.00
12793;BME280;6460;42.684;23.260;2023-04-25T04:28:15;93683.03;;;11.86;100.00
12793;BME280;6460;42.684;23.260;2023-04-25T04:30:44;93676.09;;;11.78;100.00
12793;BME280;6460;42.684;23.260;2023-04-25T04:33:12;93672.28;;;11.93;100.00
12793;BME280;6460;42.684;23.260;2023-04-25T04:35:40;93680.34;;;11.79;100.00
12793;BME280;6460;42.684;23.260;2023-04-25T04:38:08;93678.75;;;11.56;100.00
12793;BME280;6460;42.684;23.260;2023-04-25T04:40:36;93681.50;;;11.85;100.00
12793;BME280;6460;42.684;23.260;2023-04-25T04:43:03;93678.81;;;11.92;100.00
12793;BME280;6460;42.684;23.260;2023-04-25T04:45:31;93688.03;;;11.98;100.00
12793;BME280;6460;42.684;23.260;2023-04-25T04:48:00;93687.66;;;12.03;100.00
12793;BME280;6460;42.684;23.260;2023-04-25T04:50:27;93685.34;;;11.87;100.00
12793;BME280;6460;42.684;23.260;2023-04-25T04:52:54;93690.31;;;11.75;100.00
12793;BME280;6460;42.684;23.260;2023-04-25T04:55:21;93699.97;;;11.79;100.00
12793;BME280;6460;42.684;23.260;2023-04-25T04:57:48;93688.38;;;11.57;100.00
12793;BME280;6460;42.684;23.260;2023-04-25T05:00:16;93690.72;;;11.77;100.00
12793;BME280;6460;42.684;23.260;2023-04-25T05:02:43;93688.69;;;11.24;100.00
12793;BME280;6460;42.684;23.260;2023-04-25T05:05:11;93716.50;;;10.67;100.00
12793;BME280;6460;42.684;23.260;2023-04-25T05:07:38;93717.41;;;10.99;100.00
12793;BME280;6460;42.684;23.260;2023-04-25T05:10:07;93715.56;;;11.17;100.00
12793;BME280;6460;42.684;23.260;2023-04-25T05:12:34;93715.25;;;11.43;100.00
12793;BME280;6460;42.684;23.260;2023-04-25T05:15:01;93712.59;;;11.54;100.00
12793;BME280;6460;42.684;23.260;2023-04-25T05:17:28;93716.88;;;11.73;100.00
12793;BME280;6460;42.684;23.260;2023-04-25T05:19:55;93703.44;;;11.83;100.00
12793;BME280;6460;42.684;23.260;2023-04-25T05:22:24;93713.03;;;11.77;100.00
12793;BME280;6460;42.684;23.260;2023-04-25T05:24:51;93716.88;;;11.80;100.00
12793;BME280;6460;42.684;23.260;2023-04-25T05:27:20;93708.81;;;11.80;100.00
12793;BME280;6460;42.684;23.260;2023-04-25T05:29:47;93708.41;;;11.81;100.00
12793;BME280;6460;42.684;23.260;2023-04-25T05:32:14;93706.09;;;11.94;100.00
12793;BME280;6460;42.684;23.260;2023-04-25T05:34:41;93708.44;;;12.06;100.00
12793;BME280;6460;42.684;23.260;2023-04-25T05:37:08;93709.94;;;12.00;100.00
12793;BME280;6460;42.684;23.260;2023-04-25T05:39:37;93704.56;;;12.21;100.00
12793;BME280;6460;42.684;23.260;2023-04-25T05:42:04;93711.47;;;12.29;100.00
12793;BME280;6460;42.684;23.260;2023-04-25T05:44:31;93708.41;;;12.27;100.00
12793;BME280;6460;42.684;23.260;2023-04-25T05:46:59;93718.41;;;12.44;100.00
12793;BME280;6460;42.684;23.260;2023-04-25T05:49:26;93703.75;;;12.66;100.00
12793;BME280;6460;42.684;23.260;2023-04-25T05:51:53;93712.22;;;12.51;100.00
12793;BME280;6460;42.684;23.260;2023-04-25T05:54:20;93706.78;;;12.76;100.00
12793;BME280;6460;42.684;23.260;2023-04-25T05:56:49;93716.84;;;12.54;100.00
12793;BME280;6460;42.684;23.260;2023-04-25T05:59:16;93703.75;;;12.66;100.00
12793;BME280;6460;42.684;23.260;2023-04-25T06:01:43;93712.91;;;12.87;100.00
12793;BME280;6460;42.684;23.260;2023-04-25T06:04:12;93699.69;;;13.24;100.00
12793;BME280;6460;42.684;23.260;2023-04-25T06:06:39;93712.06;;;13.14;100.00
12793;BME280;6460;42.684;23.260;2023-04-25T06:09:08;93714.78;;;13.07;100.00
12793;BME280;6460;42.684;23.260;2023-04-25T06:11:35;93714.78;;;13.11;100.00
12793;BME280;6460;42.684;23.260;2023-04-25T06:14:03;93704.22;;;13.41;100.00
12793;BME280;6460;42.684;23.260;2023-04-25T06:16:30;93714.31;;;13.30;100.00
12793;BME280;6460;42.684;23.260;2023-04-25T06:18:58;93726.38;;;12.83;100.00
12793;BME280;6460;42.684;23.260;2023-04-25T06:21:25;93712.81;;;13.15;100.00
12793;BME280;6460;42.684;23.260;2023-04-25T06:23:52;93710.53;;;13.10;100.00
12793;BME280;6460;42.684;23.260;2023-04-25T06:26:19;93711.28;;;13.07;100.00
12793;BME280;6460;42.684;23.260;2023-04-25T06:28:46;93712.06;;;13.07;100.00
12793;BME280;6460;42.684;23.260;2023-04-25T06:31:15;93720.66;;;12.74;100.00
12793;BME280;6460;42.684;23.260;2023-04-25T06:33:42;93719.03;;;13.05;100.00
12793;BME280;6460;42.684;23.260;2023-04-25T06:36:09;93724.63;;;13.49;100.00
12793;BME280;6460;42.684;23.260;2023-04-25T06:38:36;93727.31;;;13.53;100.00
12793;BME280;6460;42.684;23.260;2023-04-25T06:41:03;93730.91;;;13.21;100.00
12793;BME280;6460;42.684;23.260;2023-04-25T06:43:31;93722.66;;;13.53;100.00
12793;BME280;6460;42.684;23.260;2023-04-25T06:45:59;93728.78;;;13.64;100.00
12793;BME280;6460;42.684;23.260;2023-04-25T06:48:28;93725.03;;;13.41;100.00
12793;BME280;6460;42.684;23.260;2023-04-25T06:50:55;93731.59;;;13.43;100.00
12793;BME280;6460;42.684;23.260;2023-04-25T06:53:22;93718.72;;;13.68;100.00
12793;BME280;6460;42.684;23.260;2023-04-25T06:55:49;93723.09;;;14.07;100.00
12793;BME280;6460;42.684;23.260;2023-04-25T06:58:17;93723.00;;;14.17;100.00
12793;BME280;6460;42.684;23.260;2023-04-25T07:00:44;93724.31;;;13.99;99.88
12793;BME280;6460;42.684;23.260;2023-04-25T07:03:11;93716.91;;;14.10;99.67
12793;BME280;6460;42.684;23.260;2023-04-25T07:05:40;93719.91;;;14.19;98.06
12793;BME280;6460;42.684;23.260;2023-04-25T07:08:07;93736.16;;;14.15;97.85
12793;BME280;6460;42.684;23.260;2023-04-25T07:10:34;93737.44;;;13.97;98.56
12793;BME280;6460;42.684;23.260;2023-04-25T07:13:01;93725.22;;;14.33;97.24
12793;BME280;6460;42.684;23.260;2023-04-25T07:15:29;93726.75;;;14.30;96.11
12793;BME280;6460;42.684;23.260;2023-04-25T07:17:56;93731.66;;;13.95;96.09
12793;BME280;6460;42.684;23.260;2023-04-25T07:20:23;93727.91;;;14.33;94.05
12793;BME280;6460;42.684;23.260;2023-04-25T07:22:52;93722.03;;;14.45;93.99
12793;BME280;6460;42.684;23.260;2023-04-25T07:25:19;93722.34;;;14.54;93.67
12793;BME280;6460;42.684;23.260;2023-04-25T07:27:46;93710.97;;;14.70;93.49
12793;BME280;6460;42.684;23.260;2023-04-25T07:30:14;93706.47;;;14.94;93.68
12793;BME280;6460;42.684;23.260;2023-04-25T07:32:41;93713.38;;;14.98;92.98
12793;BME280;6460;42.684;23.260;2023-04-25T07:35:08;93706.78;;;15.03;92.36
12793;BME280;6460;42.684;23.260;2023-04-25T07:37:35;93696.16;;;14.81;94.14
12793;BME280;6460;42.684;23.260;2023-04-25T07:40:05;93704.00;;;15.40;90.86
12793;BME280;6460;42.684;23.260;2023-04-25T07:42:33;93701.94;;;15.17;90.63
12793;BME280;6460;42.684;23.260;2023-04-25T07:45:00;93711.69;;;15.42;92.07
12793;BME280;6460;42.684;23.260;2023-04-25T07:47:28;93706.78;;;15.33;89.92
12793;BME280;6460;42.684;23.260;2023-04-25T07:49:55;93710.13;;;15.44;84.69
12793;BME280;6460;42.684;23.260;2023-04-25T07:52:23;93699.09;;;14.98;87.33
12793;BME280;6460;42.684;23.260;2023-04-25T07:54:50;93709.91;;;14.98;82.58
12793;BME280;6460;42.684;23.260;2023-04-25T07:57:19;93701.91;;;14.50;87.25
12793;BME280;6460;42.684;23.260;2023-04-25T07:59:46;93695.13;;;15.06;87.12
12793;BME280;6460;42.684;23.260;2023-04-25T08:02:13;93703.59;;;15.08;84.61
12793;BME280;6460;42.684;23.260;2023-04-25T08:04:40;93691.84;;;15.82;84.24
12793;BME280;6460;42.684;23.260;2023-04-25T08:07:07;93695.56;;;16.15;82.24
12793;BME280;6460;42.684;23.260;2023-04-25T08:09:35;93696.88;;;16.53;79.84
12793;BME280;6460;42.684;23.260;2023-04-25T08:12:02;93697.38;;;16.71;78.36
12793;BME280;6460;42.684;23.260;2023-04-25T08:14:30;93705.44;;;15.48;75.38
12793;BME280;6460;42.684;23.260;2023-04-25T08:17:01;93696.78;;;16.14;73.94
12793;BME280;6460;42.684;23.260;2023-04-25T08:19:29;93697.25;;;15.82;72.06
12793;BME280;6460;42.684;23.260;2023-04-25T08:21:57;93684.47;;;15.82;71.75
12793;BME280;6460;42.684;23.260;2023-04-25T08:24:24;93692.03;;;15.95;71.90
12793;BME280;6460;42.684;23.260;2023-04-25T08:26:51;93688.88;;;15.73;70.16
12793;BME280;6460;42.684;23.260;2023-04-25T08:29:19;93694.06;;;15.87;71.23
12793;BME280;6460;42.684;23.260;2023-04-25T08:31:50;93693.34;;;15.56;74.59
12793;BME280;6460;42.684;23.260;2023-04-25T08:34:18;93692.84;;;15.65;76.45
12793;BME280;6460;42.684;23.260;2023-04-25T08:36:45;93695.22;;;16.13;73.00
12793;BME280;6460;42.684;23.260;2023-04-25T08:39:12;93692.25;;;16.30;73.93
12793;BME280;6460;42.684;23.260;2023-04-25T08:41:40;93699.66;;;16.26;71.42
12793;BME280;6460;42.684;23.260;2023-04-25T08:44:10;93692.94;;;16.11;74.74
12793;BME280;6460;42.684;23.260;2023-04-25T08:46:38;93687.00;;;16.86;78.95
12793;BME280;6460;42.684;23.260;2023-04-25T08:49:08;93674.47;;;17.31;80.05
12793;BME280;6460;42.684;23.260;2023-04-25T08:51:40;93665.25;;;17.65;76.13
12793;BME280;6460;42.684;23.260;2023-04-25T08:54:12;93672.44;;;17.55;74.46
12793;BME280;6460;42.684;23.260;2023-04-25T08:56:41;93657.75;;;17.33;75.29
12793;BME280;6460;42.684;23.260;2023-04-25T08:59:10;93671.31;;;16.97;71.40
12793;BME280;6460;42.684;23.260;2023-04-25T09:01:38;93673.66;;;16.52;69.76
12793;BME280;6460;42.684;23.260;2023-04-25T09:04:06;93673.31;;;16.93;69.83
12793;BME280;6460;42.684;23.260;2023-04-25T09:06:34;93680.13;;;16.81;70.57
12793;BME280;6460;42.684;23.260;2023-04-25T09:09:05;93671.66;;;16.33;73.17
12793;BME280;6460;42.684;23.260;2023-04-25T09:11:33;93671.22;;;16.81;67.35
12793;BME280;6460;42.684;23.260;2023-04-25T09:14:12;93673.03;;;16.87;66.61
12793;BME280;6460;42.684;23.260;2023-04-25T09:16:57;93661.31;;;17.30;65.70
12793;BME280;6460;42.684;23.260;2023-04-25T09:19:28;93652.94;;;17.60;67.73
12793;BME280;6460;42.684;23.260;2023-04-25T09:21:56;93666.00;;;17.10;62.89
12793;BME280;6460;42.684;23.260;2023-04-25T09:24:34;93661.25;;;17.33;66.03
12793;BME280;6460;42.684;23.260;2023-04-25T09:27:04;93681.56;;;16.43;59.57
12793;BME280;6460;42.684;23.260;2023-04-25T09:29:32;93667.69;;;16.84;57.47
12793;BME280;6460;42.684;23.260;2023-04-25T09:32:16;93670.13;;;16.55;58.48
12793;BME280;6460;42.684;23.260;2023-04-25T09:34:47;93667.31;;;16.82;58.04
12793;BME280;6460;42.684;23.260;2023-04-25T09:37:18;93670.81;;;17.22;58.94
12793;BME280;6460;42.684;23.260;2023-04-25T09:39:46;93670.16;;;17.34;56.16
12793;BME280;6460;42.684;23.260;2023-04-25T09:42:13;93676.16;;;17.25;55.64
12793;BME280;6460;42.684;23.260;2023-04-25T09:44:45;93666.28;;;17.35;54.71
12793;BME280;6460;42.684;23.260;2023-04-25T09:47:13;93653.94;;;17.30;52.34
12793;BME280;6460;42.684;23.260;2023-04-25T09:49:41;93642.75;;;16.89;50.70
12793;BME280;6460;42.684;23.260;2023-04-25T09:52:14;93625.47;;;17.38;65.65
12793;BME280;6460;42.684;23.260;2023-04-25T09:54:41;93639.28;;;17.44;75.29
12793;BME280;6460;42.684;23.260;2023-04-25T09:57:11;93640.66;;;17.88;75.28
12793;BME280;6460;42.684;23.260;2023-04-25T09:59:39;93631.03;;;18.32;72.31
12793;BME280;6460;42.684;23.260;2023-04-25T10:02:09;93635.41;;;18.74;71.36
12793;BME280;6460;42.684;23.260;2023-04-25T10:04:38;93637.09;;;18.84;69.04
12793;BME280;6460;42.684;23.260;2023-04-25T10:07:06;93654.31;;;18.49;67.59
12793;BME280;6460;42.684;23.260;2023-04-25T10:09:37;93676.44;;;18.03;69.47
12793;BME280;6460;42.684;23.260;2023-04-25T10:12:05;93690.66;;;15.56;61.41
12793;BME280;6460;42.684;23.260;2023-04-25T10:14:33;93669.88;;;15.46;65.92
12793;BME280;6460;42.684;23.260;2023-04-25T10:17:01;93664.09;;;15.44;65.30
12793;BME280;6460;42.684;23.260;2023-04-25T10:19:28;93665.47;;;15.59;64.30
12793;BME280;6460;42.684;23.260;2023-04-25T10:22:06;93671.88;;;15.96;61.27
12793;BME280;6460;42.684;23.260;2023-04-25T10:24:36;93653.84;;;16.32;62.34
12793;BME280;6460;42.684;23.260;2023-04-25T10:27:04;93656.22;;;16.30;60.89
12793;BME280;6460;42.684;23.260;2023-04-25T10:29:32;93662.22;;;16.41;58.13
12793;BME280;6460;42.684;23.260;2023-04-25T10:31:59;93639.91;;;16.53;59.10
12793;BME280;6460;42.684;23.260;2023-04-25T10:34:39;93659.09;;;16.85;55.83
12793;BME280;6460;42.684;23.260;2023-04-25T10:37:09;93645.53;;;16.85;53.49
12793;BME280;6460;42.684;23.260;2023-04-25T10:39:39;93645.81;;;16.71;54.05
12793;BME280;6460;42.684;23.260;2023-04-25T10:42:07;93650.50;;;16.90;52.65
12793;BME280;6460;42.684;23.260;2023-04-25T10:44:37;93650.44;;;16.94;53.44
12793;BME280;6460;42.684;23.260;2023-04-25T10:47:06;93648.75;;;17.00;52.98
12793;BME280;6460;42.684;23.260;2023-04-25T10:49:35;93631.13;;;16.88;55.02
12793;BME280;6460;42.684;23.260;2023-04-25T10:52:16;93630.84;;;16.83;58.88
12793;BME280;6460;42.684;23.260;2023-04-25T10:54:48;93633.97;;;17.21;57.47
12793;BME280;6460;42.684;23.260;2023-04-25T10:57:38;93635.84;;;17.24;53.01
12793;BME280;6460;42.684;23.260;2023-04-25T11:00:13;93623.81;;;17.05;56.42
12793;BME280;6460;42.684;23.260;2023-04-25T11:02:43;93639.75;;;17.23;53.54
12793;BME280;6460;42.684;23.260;2023-04-25T11:05:18;93628.91;;;17.75;53.75
12793;BME280;6460;42.684;23.260;2023-04-25T11:07:50;93616.78;;;18.12;52.59
12793;BME280;6460;42.684;23.260;2023-04-25T11:10:19;93608.91;;;17.49;54.07
12793;BME280;6460;42.684;23.260;2023-04-25T11:12:46;93617.28;;;17.90;55.82
12793;BME280;6460;42.684;23.260;2023-04-25T11:15:14;93607.78;;;17.82;52.93
12793;BME280;6460;42.684;23.260;2023-04-25T11:17:41;93620.75;;;17.39;56.37
12793;BME280;6460;42.684;23.260;2023-04-25T11:20:10;93625.81;;;17.21;56.60
12793;BME280;6460;42.684;23.260;2023-04-25T11:22:40;93628.06;;;16.86;57.43
12793;BME280;6460;42.684;23.260;2023-04-25T11:25:09;93629.44;;;16.55;60.12
12793;BME280;6460;42.684;23.260;2023-04-25T11:27:50;93627.50;;;16.32;63.30
12793;BME280;6460;42.684;23.260;2023-04-25T11:30:19;93642.00;;;16.46;62.35
12793;BME280;6460;42.684;23.260;2023-04-25T11:32:46;93640.19;;;16.39;63.93
12793;BME280;6460;42.684;23.260;2023-04-25T11:35:14;93652.16;;;15.95;64.76
12793;BME280;6460;42.684;23.260;2023-04-25T11:37:42;93654.19;;;15.87;63.80
12793;BME280;6460;42.684;23.260;2023-04-25T11:40:10;93657.34;;;15.59;64.85
12793;BME280;6460;42.684;23.260;2023-04-25T11:42:38;93683.31;;;14.93;65.63
12793;BME280;6460;42.684;23.260;2023-04-25T11:45:07;93670.97;;;14.54;69.93
12793;BME280;6460;42.684;23.260;2023-04-25T11:47:35;93635.75;;;13.72;75.37
12793;BME280;6460;42.684;23.260;2023-04-25T11:50:03;93639.66;;;14.16;74.37
12793;BME280;6460;42.684;23.260;2023-04-25T11:52:38;93638.06;;;14.18;76.98
12793;BME280;6460;42.684;23.260;2023-04-25T11:55:10;93623.53;;;14.05;77.22
12793;BME280;6460;42.684;23.260;2023-04-25T11:57:38;93625.69;;;14.21;77.73
12793;BME280;6460;42.684;23.260;2023-04-25T12:00:11;93619.09;;;14.63;74.43
12793;BME280;6460;42.684;23.260;2023-04-25T12:02:42;93610.06;;;15.07;75.03
12793;BME280;6460;42.684;23.260;2023-04-25T12:05:10;93610.09;;;15.33;74.94
12793;BME280;6460;42.684;23.260;2023-04-25T12:07:37;93615.47;;;15.64;76.25
12793;BME280;6460;42.684;23.260;2023-04-25T12:10:05;93614.38;;;16.51;71.93
12793;BME280;6460;42.684;23.260;2023-04-25T12:12:33;93615.41;;;16.60;69.06
12793;BME280;6460;42.684;23.260;2023-04-25T12:15:10;93615.41;;;16.60;68.25
12793;BME280;6460;42.684;23.260;2023-04-25T12:17:38;93608.31;;;16.66;71.89
12793;BME280;6460;42.684;23.260;2023-04-25T12:20:09;93615.97;;;16.05;65.86
12793;BME280;6460;42.684;23.260;2023-04-25T12:22:37;93619.19;;;15.73;65.25
12793;BME280;6460;42.684;23.260;2023-04-25T12:25:04;93683.75;;;15.78;64.60
12793;BME280;6460;42.684;23.260;2023-04-25T12:27:31;93675.44;;;15.05;74.47
12793;BME280;6460;42.684;23.260;2023-04-25T12:29:59;93674.06;;;14.53;76.71
12793;BME280;6460;42.684;23.260;2023-04-25T12:32:27;93677.56;;;14.05;80.01
12793;BME280;6460;42.684;23.260;2023-04-25T12:34:54;93674.94;;;13.95;80.34
12793;BME280;6460;42.684;23.260;2023-04-25T12:37:21;93678.44;;;13.92;83.33
12793;BME280;6460;42.684;23.260;2023-04-25T12:39:48;93677.81;;;13.70;84.38
12793;BME280;6460;42.684;23.260;2023-04-25T12:42:14;93677.66;;;13.36;86.29
12793;BME280;6460;42.684;23.260;2023-04-25T12:44:41;93678.13;;;13.24;87.20
12793;BME280;6460;42.684;23.260;2023-04-25T12:47:08;93676.25;;;13.14;89.66
12793;BME280;6460;42.684;23.260;2023-04-25T12:49:37;93680.41;;;13.22;90.13
12793;BME280;6460;42.684;23.260;2023-04-25T12:52:04;93683.53;;;13.17;91.90
12793;BME280;6460;42.684;23.260;2023-04-25T12:54:31;93682.72;;;13.27;91.76
12793;BME280;6460;42.684;23.260;2023-04-25T12:56:58;93685.81;;;13.25;91.13
12793;BME280;6460;42.684;23.260;2023-04-25T12:59:27;93698.22;;;13.09;93.55
12793;BME280;6460;42.684;23.260;2023-04-25T13:01:54;93709.00;;;13.02;95.74